sensor_id;sensor_type;location;lat;lon;timestamp;P1;durP1;ratioP1;P2;durP2;ratioP2
49183;SDS011;35021;49.214;12.270;2023-02-13T00:00:09;4.65;;;3.65;;
49183;SDS011;35021;49.214;12.270;2023-02-13T00:02:40;3.78;;;3.38;;
49183;SDS011;35021;49.214;12.270;2023-02-13T00:05:08;4.32;;;3.88;;
49183;SDS011;35021;49.214;12.270;2023-02-13T00:07:34;3.92;;;3.30;;
49183;SDS011;35021;49.214;12.270;2023-02-13T00:10:01;4.50;;;4.05;;
49183;SDS011;35021;49.214;12.270;2023-02-13T00:12:29;4.63;;;3.60;;
49183;SDS011;35021;49.214;12.270;2023-02-13T00:14:56;4.00;;;3.60;;
49183;SDS011;35021;49.214;12.270;2023-02-13T00:17:24;4.60;;;3.97;;
49183;SDS011;35021;49.214;12.270;2023-02-13T00:19:51;4.15;;;3.75;;
49183;SDS011;35021;49.214;12.270;2023-02-13T00:22:18;4.35;;;3.65;;
49183;SDS011;35021;49.214;12.270;2023-02-13T00:24:45;3.97;;;3.58;;
49183;SDS011;35021;49.214;12.270;2023-02-13T00:27:12;4.55;;;4.03;;
49183;SDS011;35021;49.214;12.270;2023-02-13T00:29:39;4.82;;;4.18;;
49183;SDS011;35021;49.214;12.270;2023-02-13T00:32:06;4.32;;;3.80;;
49183;SDS011;35021;49.214;12.270;2023-02-13T00:34:33;4.10;;;3.70;;
49183;SDS011;35021;49.214;12.270;2023-02-13T00:37:00;3.83;;;3.28;;
49183;SDS011;35021;49.214;12.270;2023-02-13T00:39:26;4.82;;;3.80;;
49183;SDS011;35021;49.214;12.270;2023-02-13T00:41:53;4.60;;;3.60;;
49183;SDS011;35021;49.214;12.270;2023-02-13T00:44:20;5.15;;;4.28;;
49183;SDS011;35021;49.214;12.270;2023-02-13T00:46:47;5.28;;;3.78;;
49183;SDS011;35021;49.214;12.270;2023-02-13T00:49:14;5.25;;;4.18;;
49183;SDS011;35021;49.214;12.270;2023-02-13T00:51:41;7.38;;;4.53;;
49183;SDS011;35021;49.214;12.270;2023-02-13T00:54:07;5.43;;;4.05;;
49183;SDS011;35021;49.214;12.270;2023-02-13T00:56:34;4.93;;;4.00;;
49183;SDS011;35021;49.214;12.270;2023-02-13T00:59:01;4.18;;;3.78;;
49183;SDS011;35021;49.214;12.270;2023-02-13T01:01:28;4.70;;;3.50;;
49183;SDS011;35021;49.214;12.270;2023-02-13T01:03:55;4.05;;;3.65;;
49183;SDS011;35021;49.214;12.270;2023-02-13T01:06:22;4.32;;;3.92;;
49183;SDS011;35021;49.214;12.270;2023-02-13T01:08:49;5.75;;;4.15;;
49183;SDS011;35021;49.214;12.270;2023-02-13T01:11:16;5.03;;;3.75;;
49183;SDS011;35021;49.214;12.270;2023-02-13T01:13:44;4.95;;;3.90;;
49183;SDS011;35021;49.214;12.270;2023-02-13T01:16:11;3.70;;;3.30;;
49183;SDS011;35021;49.214;12.270;2023-02-13T01:18:38;3.85;;;3.40;;
49183;SDS011;35021;49.214;12.270;2023-02-13T01:21:06;4.53;;;3.70;;
49183;SDS011;35021;49.214;12.270;2023-02-13T01:23:35;3.92;;;3.33;;
49183;SDS011;35021;49.214;12.270;2023-02-13T01:26:03;5.05;;;3.78;;
49183;SDS011;35021;49.214;12.270;2023-02-13T01:28:31;3.78;;;3.47;;
49183;SDS011;35021;49.214;12.270;2023-02-13T01:30:58;4.68;;;3.72;;
49183;SDS011;35021;49.214;12.270;2023-02-13T01:33:26;4.05;;;3.63;;
49183;SDS011;35021;49.214;12.270;2023-02-13T01:35:54;3.42;;;3.10;;
49183;SDS011;35021;49.214;12.270;2023-02-13T01:38:21;4.28;;;3.85;;
49183;SDS011;35021;49.214;12.270;2023-02-13T01:40:48;3.40;;;3.10;;
49183;SDS011;35021;49.214;12.270;2023-02-13T01:43:19;4.60;;;4.03;;
49183;SDS011;35021;49.214;12.270;2023-02-13T01:45:51;3.65;;;3.30;;
49183;SDS011;35021;49.214;12.270;2023-02-13T01:48:22;4.28;;;3.88;;
49183;SDS011;35021;49.214;12.270;2023-02-13T01:50:55;4.70;;;3.92;;
49183;SDS011;35021;49.214;12.270;2023-02-13T01:53:31;4.75;;;4.07;;
49183;SDS011;35021;49.214;12.270;2023-02-13T01:56:24;4.47;;;3.97;;
49183;SDS011;35021;49.214;12.270;2023-02-13T01:58:56;5.35;;;4.22;;
49183;SDS011;35021;49.214;12.270;2023-02-13T02:01:26;4.63;;;4.13;;
49183;SDS011;35021;49.214;12.270;2023-02-13T02:03:55;4.65;;;3.67;;
49183;SDS011;35021;49.214;12.270;2023-02-13T02:06:26;4.20;;;3.80;;
49183;SDS011;35021;49.214;12.270;2023-02-13T02:08:58;4.63;;;4.03;;
49183;SDS011;35021;49.214;12.270;2023-02-13T02:11:35;5.90;;;4.10;;
49183;SDS011;35021;49.214;12.270;2023-02-13T02:14:21;4.10;;;3.70;;
49183;SDS011;35021;49.214;12.270;2023-02-13T02:16:47;4.18;;;3.78;;
49183;SDS011;35021;49.214;12.270;2023-02-13T02:19:18;4.03;;;3.42;;
49183;SDS011;35021;49.214;12.270;2023-02-13T02:44:10;3.85;;;3.55;;
49183;SDS011;35021;49.214;12.270;2023-02-13T02:55:30;3.80;;;3.40;;
49183;SDS011;35021;49.214;12.270;2023-02-13T02:58:14;4.30;;;3.10;;
49183;SDS011;35021;49.214;12.270;2023-02-13T03:01:06;4.50;;;3.40;;
49183;SDS011;35021;49.214;12.270;2023-02-13T03:03:56;4.15;;;3.75;;
49183;SDS011;35021;49.214;12.270;2023-02-13T03:07:03;4.10;;;3.50;;
49183;SDS011;35021;49.214;12.270;2023-02-13T03:09:40;4.50;;;3.88;;
49183;SDS011;35021;49.214;12.270;2023-02-13T03:12:37;4.18;;;3.78;;
49183;SDS011;35021;49.214;12.270;2023-02-13T03:15:25;4.07;;;3.65;;
49183;SDS011;35021;49.214;12.270;2023-02-13T03:17:53;4.45;;;3.95;;
49183;SDS011;35021;49.214;12.270;2023-02-13T03:20:45;4.20;;;3.80;;
49183;SDS011;35021;49.214;12.270;2023-02-13T03:23:51;4.10;;;3.72;;
49183;SDS011;35021;49.214;12.270;2023-02-13T03:38:23;4.80;;;4.10;;
49183;SDS011;35021;49.214;12.270;2023-02-13T03:40:59;4.20;;;3.78;;
49183;SDS011;35021;49.214;12.270;2023-02-13T03:44:03;3.72;;;3.33;;
49183;SDS011;35021;49.214;12.270;2023-02-13T03:46:42;5.93;;;4.32;;
49183;SDS011;35021;49.214;12.270;2023-02-13T03:49:16;4.30;;;3.90;;
49183;SDS011;35021;49.214;12.270;2023-02-13T03:52:08;4.35;;;3.80;;
49183;SDS011;35021;49.214;12.270;2023-02-13T03:54:43;4.88;;;4.25;;
49183;SDS011;35021;49.214;12.270;2023-02-13T03:57:32;4.15;;;3.75;;
49183;SDS011;35021;49.214;12.270;2023-02-13T04:00:22;3.92;;;3.55;;
49183;SDS011;35021;49.214;12.270;2023-02-13T04:02:58;4.18;;;3.50;;
49183;SDS011;35021;49.214;12.270;2023-02-13T04:05:35;4.82;;;4.20;;
49183;SDS011;35021;49.214;12.270;2023-02-13T04:08:07;4.53;;;4.13;;
49183;SDS011;35021;49.214;12.270;2023-02-13T04:10:34;3.75;;;3.38;;
49183;SDS011;35021;49.214;12.270;2023-02-13T04:16:01;5.60;;;4.25;;
49183;SDS011;35021;49.214;12.270;2023-02-13T04:18:34;3.72;;;3.30;;
49183;SDS011;35021;49.214;12.270;2023-02-13T04:21:02;4.30;;;3.65;;
49183;SDS011;35021;49.214;12.270;2023-02-13T04:23:30;5.50;;;3.80;;
49183;SDS011;35021;49.214;12.270;2023-02-13T04:25:57;4.05;;;3.47;;
49183;SDS011;35021;49.214;12.270;2023-02-13T04:28:27;5.05;;;3.72;;
49183;SDS011;35021;49.214;12.270;2023-02-13T04:30:55;4.13;;;3.67;;
49183;SDS011;35021;49.214;12.270;2023-02-13T04:33:23;4.25;;;3.63;;
49183;SDS011;35021;49.214;12.270;2023-02-13T04:35:50;4.25;;;3.67;;
49183;SDS011;35021;49.214;12.270;2023-02-13T04:38:16;4.45;;;3.85;;
49183;SDS011;35021;49.214;12.270;2023-02-13T04:40:43;4.85;;;3.40;;
49183;SDS011;35021;49.214;12.270;2023-02-13T04:43:10;4.13;;;3.70;;
49183;SDS011;35021;49.214;12.270;2023-02-13T04:45:37;3.20;;;2.90;;
49183;SDS011;35021;49.214;12.270;2023-02-13T04:48:04;3.42;;;3.13;;
49183;SDS011;35021;49.214;12.270;2023-02-13T04:50:31;4.25;;;3.83;;
49183;SDS011;35021;49.214;12.270;2023-02-13T04:52:57;3.78;;;3.40;;
49183;SDS011;35021;49.214;12.270;2023-02-13T04:55:25;4.03;;;3.58;;
49183;SDS011;35021;49.214;12.270;2023-02-13T04:57:53;3.97;;;3.58;;
49183;SDS011;35021;49.214;12.270;2023-02-13T05:00:21;3.92;;;3.45;;
49183;SDS011;35021;49.214;12.270;2023-02-13T05:02:49;3.95;;;3.55;;
49183;SDS011;35021;49.214;12.270;2023-02-13T05:05:16;4.28;;;3.50;;
49183;SDS011;35021;49.214;12.270;2023-02-13T05:07:44;4.60;;;3.80;;
49183;SDS011;35021;49.214;12.270;2023-02-13T05:10:11;3.75;;;3.42;;
49183;SDS011;35021;49.214;12.270;2023-02-13T05:12:38;3.67;;;3.35;;
49183;SDS011;35021;49.214;12.270;2023-02-13T05:15:05;4.20;;;3.80;;
49183;SDS011;35021;49.214;12.270;2023-02-13T05:17:32;4.28;;;3.60;;
49183;SDS011;35021;49.214;12.270;2023-02-13T05:19:59;3.53;;;3.15;;
49183;SDS011;35021;49.214;12.270;2023-02-13T05:22:26;4.10;;;3.42;;
49183;SDS011;35021;49.214;12.270;2023-02-13T05:25:11;3.53;;;3.22;;
49183;SDS011;35021;49.214;12.270;2023-02-13T05:27:38;3.38;;;2.92;;
49183;SDS011;35021;49.214;12.270;2023-02-13T05:30:05;4.20;;;3.22;;
49183;SDS011;35021;49.214;12.270;2023-02-13T05:32:32;3.38;;;3.08;;
49183;SDS011;35021;49.214;12.270;2023-02-13T05:34:59;3.38;;;2.90;;
49183;SDS011;35021;49.214;12.270;2023-02-13T05:37:29;3.55;;;3.22;;
49183;SDS011;35021;49.214;12.270;2023-02-13T05:39:56;4.53;;;3.38;;
49183;SDS011;35021;49.214;12.270;2023-02-13T05:42:23;3.90;;;3.35;;
49183;SDS011;35021;49.214;12.270;2023-02-13T05:44:50;4.00;;;3.60;;
49183;SDS011;35021;49.214;12.270;2023-02-13T05:47:17;3.70;;;3.30;;
49183;SDS011;35021;49.214;12.270;2023-02-13T05:49:44;3.95;;;3.55;;
49183;SDS011;35021;49.214;12.270;2023-02-13T05:52:10;3.90;;;3.28;;
49183;SDS011;35021;49.214;12.270;2023-02-13T05:54:37;3.60;;;3.30;;
49183;SDS011;35021;49.214;12.270;2023-02-13T05:57:04;4.40;;;3.22;;
49183;SDS011;35021;49.214;12.270;2023-02-13T05:59:31;3.92;;;3.30;;
49183;SDS011;35021;49.214;12.270;2023-02-13T06:01:58;3.80;;;3.40;;
49183;SDS011;35021;49.214;12.270;2023-02-13T06:04:25;4.40;;;3.55;;
49183;SDS011;35021;49.214;12.270;2023-02-13T06:06:52;4.43;;;3.70;;
49183;SDS011;35021;49.214;12.270;2023-02-13T06:09:19;3.72;;;3.33;;
49183;SDS011;35021;49.214;12.270;2023-02-13T06:11:45;4.13;;;3.58;;
49183;SDS011;35021;49.214;12.270;2023-02-13T06:14:12;4.15;;;3.70;;
49183;SDS011;35021;49.214;12.270;2023-02-13T06:16:40;4.13;;;3.72;;
49183;SDS011;35021;49.214;12.270;2023-02-13T06:19:06;4.00;;;3.50;;
49183;SDS011;35021;49.214;12.270;2023-02-13T06:21:33;4.07;;;3.67;;
49183;SDS011;35021;49.214;12.270;2023-02-13T06:24:03;4.43;;;3.90;;
49183;SDS011;35021;49.214;12.270;2023-02-13T06:26:32;4.22;;;3.60;;
49183;SDS011;35021;49.214;12.270;2023-02-13T06:28:59;3.80;;;3.40;;
49183;SDS011;35021;49.214;12.270;2023-02-13T06:31:26;4.10;;;3.58;;
49183;SDS011;35021;49.214;12.270;2023-02-13T06:33:53;3.90;;;3.50;;
49183;SDS011;35021;49.214;12.270;2023-02-13T06:36:20;5.18;;;3.97;;
49183;SDS011;35021;49.214;12.270;2023-02-13T06:38:46;3.47;;;3.17;;
49183;SDS011;35021;49.214;12.270;2023-02-13T06:41:13;4.10;;;3.70;;
49183;SDS011;35021;49.214;12.270;2023-02-13T06:43:40;4.32;;;3.63;;
49183;SDS011;35021;49.214;12.270;2023-02-13T06:46:07;4.25;;;3.80;;
49183;SDS011;35021;49.214;12.270;2023-02-13T06:48:34;3.88;;;3.30;;
49183;SDS011;35021;49.214;12.270;2023-02-13T06:51:01;3.85;;;3.05;;
49183;SDS011;35021;49.214;12.270;2023-02-13T06:53:28;3.70;;;3.30;;
49183;SDS011;35021;49.214;12.270;2023-02-13T06:55:56;5.00;;;4.00;;
49183;SDS011;35021;49.214;12.270;2023-02-13T06:58:23;3.80;;;3.40;;
49183;SDS011;35021;49.214;12.270;2023-02-13T07:00:51;3.80;;;3.40;;
49183;SDS011;35021;49.214;12.270;2023-02-13T07:03:18;4.22;;;3.67;;
49183;SDS011;35021;49.214;12.270;2023-02-13T07:05:45;5.10;;;3.83;;
49183;SDS011;35021;49.214;12.270;2023-02-13T07:08:12;5.05;;;3.80;;
49183;SDS011;35021;49.214;12.270;2023-02-13T07:10:39;3.80;;;3.33;;
49183;SDS011;35021;49.214;12.270;2023-02-13T07:13:07;5.03;;;3.58;;
49183;SDS011;35021;49.214;12.270;2023-02-13T07:15:34;3.70;;;3.30;;
49183;SDS011;35021;49.214;12.270;2023-02-13T07:18:01;4.40;;;3.60;;
49183;SDS011;35021;49.214;12.270;2023-02-13T07:20:29;3.88;;;3.30;;
49183;SDS011;35021;49.214;12.270;2023-02-13T07:22:59;3.78;;;3.38;;
49183;SDS011;35021;49.214;12.270;2023-02-13T07:25:28;3.90;;;3.50;;
49183;SDS011;35021;49.214;12.270;2023-02-13T07:27:59;4.32;;;3.67;;
49183;SDS011;35021;49.214;12.270;2023-02-13T07:30:28;4.45;;;3.80;;
49183;SDS011;35021;49.214;12.270;2023-02-13T07:33:02;3.72;;;3.42;;
49183;SDS011;35021;49.214;12.270;2023-02-13T07:35:30;4.38;;;3.33;;
49183;SDS011;35021;49.214;12.270;2023-02-13T07:37:57;4.30;;;3.47;;
49183;SDS011;35021;49.214;12.270;2023-02-13T07:40:26;3.90;;;3.35;;
49183;SDS011;35021;49.214;12.270;2023-02-13T07:42:53;3.90;;;3.58;;
49183;SDS011;35021;49.214;12.270;2023-02-13T07:45:20;4.07;;;3.30;;
49183;SDS011;35021;49.214;12.270;2023-02-13T07:47:46;4.20;;;3.70;;
49183;SDS011;35021;49.214;12.270;2023-02-13T07:50:13;3.88;;;3.47;;
49183;SDS011;35021;49.214;12.270;2023-02-13T07:52:40;4.68;;;3.70;;
49183;SDS011;35021;49.214;12.270;2023-02-13T07:55:07;4.60;;;4.13;;
49183;SDS011;35021;49.214;12.270;2023-02-13T07:57:36;4.70;;;4.30;;
49183;SDS011;35021;49.214;12.270;2023-02-13T08:00:03;4.63;;;4.15;;
49183;SDS011;35021;49.214;12.270;2023-02-13T08:02:31;5.15;;;4.65;;
49183;SDS011;35021;49.214;12.270;2023-02-13T08:04:58;5.45;;;4.90;;
49183;SDS011;35021;49.214;12.270;2023-02-13T08:07:25;5.40;;;4.90;;
49183;SDS011;35021;49.214;12.270;2023-02-13T08:09:52;6.38;;;5.78;;
49183;SDS011;35021;49.214;12.270;2023-02-13T08:12:37;6.10;;;5.50;;
49183;SDS011;35021;49.214;12.270;2023-02-13T08:15:04;6.45;;;5.40;;
49183;SDS011;35021;49.214;12.270;2023-02-13T08:17:32;6.03;;;5.13;;
49183;SDS011;35021;49.214;12.270;2023-02-13T08:19:58;6.43;;;5.78;;
49183;SDS011;35021;49.214;12.270;2023-02-13T08:22:25;6.28;;;5.50;;
49183;SDS011;35021;49.214;12.270;2023-02-13T08:24:52;9.77;;;7.20;;
49183;SDS011;35021;49.214;12.270;2023-02-13T08:27:19;8.50;;;5.90;;
49183;SDS011;35021;49.214;12.270;2023-02-13T08:29:47;6.45;;;5.82;;
49183;SDS011;35021;49.214;12.270;2023-02-13T08:32:15;6.72;;;6.03;;
49183;SDS011;35021;49.214;12.270;2023-02-13T08:34:43;7.82;;;6.18;;
49183;SDS011;35021;49.214;12.270;2023-02-13T08:37:09;8.55;;;7.40;;
49183;SDS011;35021;49.214;12.270;2023-02-13T08:39:36;7.70;;;6.40;;
49183;SDS011;35021;49.214;12.270;2023-02-13T08:42:04;10.48;;;6.93;;
49183;SDS011;35021;49.214;12.270;2023-02-13T08:44:31;8.55;;;6.57;;
49183;SDS011;35021;49.214;12.270;2023-02-13T08:46:58;8.80;;;6.65;;
49183;SDS011;35021;49.214;12.270;2023-02-13T08:49:29;8.15;;;6.78;;
49183;SDS011;35021;49.214;12.270;2023-02-13T08:51:56;9.77;;;6.47;;
49183;SDS011;35021;49.214;12.270;2023-02-13T08:54:23;7.10;;;6.40;;
49183;SDS011;35021;49.214;12.270;2023-02-13T08:56:50;8.30;;;6.53;;
49183;SDS011;35021;49.214;12.270;2023-02-13T08:59:17;9.02;;;7.20;;
49183;SDS011;35021;49.214;12.270;2023-02-13T09:01:44;8.32;;;7.20;;
49183;SDS011;35021;49.214;12.270;2023-02-13T09:04:11;8.95;;;7.35;;
49183;SDS011;35021;49.214;12.270;2023-02-13T09:06:41;7.63;;;6.45;;
49183;SDS011;35021;49.214;12.270;2023-02-13T09:09:08;8.20;;;7.25;;
49183;SDS011;35021;49.214;12.270;2023-02-13T09:11:35;9.70;;;7.18;;
49183;SDS011;35021;49.214;12.270;2023-02-13T09:14:02;8.63;;;7.03;;
49183;SDS011;35021;49.214;12.270;2023-02-13T09:16:29;7.53;;;6.38;;
49183;SDS011;35021;49.214;12.270;2023-02-13T09:18:56;7.13;;;5.63;;
49183;SDS011;35021;49.214;12.270;2023-02-13T09:21:23;8.10;;;6.80;;
49183;SDS011;35021;49.214;12.270;2023-02-13T09:23:50;8.80;;;6.78;;
49183;SDS011;35021;49.214;12.270;2023-02-13T09:26:18;9.10;;;6.75;;
49183;SDS011;35021;49.214;12.270;2023-02-13T09:28:46;7.30;;;6.38;;
49183;SDS011;35021;49.214;12.270;2023-02-13T09:31:17;9.32;;;6.75;;
49183;SDS011;35021;49.214;12.270;2023-02-13T09:33:47;6.88;;;6.18;;
49183;SDS011;35021;49.214;12.270;2023-02-13T09:36:19;6.80;;;5.80;;
49183;SDS011;35021;49.214;12.270;2023-02-13T09:38:53;6.95;;;6.20;;
49183;SDS011;35021;49.214;12.270;2023-02-13T09:41:31;7.15;;;6.07;;
49183;SDS011;35021;49.214;12.270;2023-02-13T09:44:11;6.95;;;6.20;;
49183;SDS011;35021;49.214;12.270;2023-02-13T09:50:02;7.90;;;6.82;;
49183;SDS011;35021;49.214;12.270;2023-02-13T09:52:39;6.37;;;5.70;;
49183;SDS011;35021;49.214;12.270;2023-02-13T09:55:13;6.97;;;6.28;;
49183;SDS011;35021;49.214;12.270;2023-02-13T09:57:50;7.03;;;6.32;;
49183;SDS011;35021;49.214;12.270;2023-02-13T10:00:25;7.70;;;6.40;;
49183;SDS011;35021;49.214;12.270;2023-02-13T10:05:42;7.93;;;6.82;;
49183;SDS011;35021;49.214;12.270;2023-02-13T10:08:35;8.50;;;6.97;;
49183;SDS011;35021;49.214;12.270;2023-02-13T10:19:34;8.05;;;7.25;;
49183;SDS011;35021;49.214;12.270;2023-02-13T10:22:22;8.40;;;7.60;;
49183;SDS011;35021;49.214;12.270;2023-02-13T10:27:42;8.50;;;6.88;;
49183;SDS011;35021;49.214;12.270;2023-02-13T10:33:11;9.00;;;7.95;;
49183;SDS011;35021;49.214;12.270;2023-02-13T10:35:47;9.25;;;7.72;;
49183;SDS011;35021;49.214;12.270;2023-02-13T10:38:26;9.98;;;8.07;;
49183;SDS011;35021;49.214;12.270;2023-02-13T10:41:03;7.97;;;7.10;;
49183;SDS011;35021;49.214;12.270;2023-02-13T10:43:46;8.85;;;7.22;;
49183;SDS011;35021;49.214;12.270;2023-02-13T10:46:19;8.75;;;6.97;;
49183;SDS011;35021;49.214;12.270;2023-02-13T11:02:22;8.85;;;6.57;;
49183;SDS011;35021;49.214;12.270;2023-02-13T11:04:52;8.30;;;6.63;;
49183;SDS011;35021;49.214;12.270;2023-02-13T11:07:28;10.02;;;6.50;;
49183;SDS011;35021;49.214;12.270;2023-02-13T11:09:59;7.05;;;5.93;;
49183;SDS011;35021;49.214;12.270;2023-02-13T11:12:31;7.47;;;5.88;;
49183;SDS011;35021;49.214;12.270;2023-02-13T11:15:03;6.70;;;6.00;;
49183;SDS011;35021;49.214;12.270;2023-02-13T11:17:35;8.07;;;6.22;;
49183;SDS011;35021;49.214;12.270;2023-02-13T11:20:06;7.80;;;6.25;;
49183;SDS011;35021;49.214;12.270;2023-02-13T11:22:51;6.28;;;5.68;;
49183;SDS011;35021;49.214;12.270;2023-02-13T11:25:22;6.63;;;5.85;;
49183;SDS011;35021;49.214;12.270;2023-02-13T11:27:54;6.00;;;5.40;;
49183;SDS011;35021;49.214;12.270;2023-02-13T11:30:35;6.65;;;5.93;;
49183;SDS011;35021;49.214;12.270;2023-02-13T11:33:05;6.80;;;6.10;;
49183;SDS011;35021;49.214;12.270;2023-02-13T11:36:06;7.25;;;5.88;;
49183;SDS011;35021;49.214;12.270;2023-02-13T11:38:35;6.95;;;6.15;;
49183;SDS011;35021;49.214;12.270;2023-02-13T11:41:04;8.55;;;6.13;;
49183;SDS011;35021;49.214;12.270;2023-02-13T11:43:43;7.38;;;6.10;;
49183;SDS011;35021;49.214;12.270;2023-02-13T11:46:20;8.73;;;6.97;;
49183;SDS011;35021;49.214;12.270;2023-02-13T11:49:03;6.78;;;6.03;;
49183;SDS011;35021;49.214;12.270;2023-02-13T11:51:38;7.05;;;6.18;;
49183;SDS011;35021;49.214;12.270;2023-02-13T11:56:53;7.03;;;6.03;;
49183;SDS011;35021;49.214;12.270;2023-02-13T11:59:38;7.72;;;6.38;;
49183;SDS011;35021;49.214;12.270;2023-02-13T12:02:17;8.32;;;6.32;;
49183;SDS011;35021;49.214;12.270;2023-02-13T12:04:54;7.78;;;6.97;;
49183;SDS011;35021;49.214;12.270;2023-02-13T12:07:41;6.90;;;6.07;;
49183;SDS011;35021;49.214;12.270;2023-02-13T12:12:43;8.45;;;6.30;;
49183;SDS011;35021;49.214;12.270;2023-02-13T12:15:34;8.07;;;6.40;;
49183;SDS011;35021;49.214;12.270;2023-02-13T12:18:09;6.97;;;6.28;;
49183;SDS011;35021;49.214;12.270;2023-02-13T12:26:51;7.28;;;6.07;;
49183;SDS011;35021;49.214;12.270;2023-02-13T12:32:36;7.18;;;6.47;;
49183;SDS011;35021;49.214;12.270;2023-02-13T12:37:59;6.40;;;5.80;;
49183;SDS011;35021;49.214;12.270;2023-02-13T12:46:14;7.28;;;6.20;;
49183;SDS011;35021;49.214;12.270;2023-02-13T12:51:55;5.78;;;5.15;;
49183;SDS011;35021;49.214;12.270;2023-02-13T13:00:53;6.20;;;5.38;;
49183;SDS011;35021;49.214;12.270;2023-02-13T13:15:13;4.55;;;4.15;;
49183;SDS011;35021;49.214;12.270;2023-02-13T13:20:54;4.32;;;3.60;;
49183;SDS011;35021;49.214;12.270;2023-02-13T13:23:52;4.93;;;3.88;;
49183;SDS011;35021;49.214;12.270;2023-02-13T13:26:43;4.10;;;3.35;;
49183;SDS011;35021;49.214;12.270;2023-02-13T13:29:17;3.33;;;3.03;;
49183;SDS011;35021;49.214;12.270;2023-02-13T13:31:49;3.85;;;3.55;;
49183;SDS011;35021;49.214;12.270;2023-02-13T13:34:24;3.50;;;3.20;;
49183;SDS011;35021;49.214;12.270;2023-02-13T13:36:54;5.07;;;3.20;;
49183;SDS011;35021;49.214;12.270;2023-02-13T13:49:53;3.10;;;2.70;;
49183;SDS011;35021;49.214;12.270;2023-02-13T13:54:53;3.10;;;2.80;;
49183;SDS011;35021;49.214;12.270;2023-02-13T14:02:41;3.88;;;3.10;;
49183;SDS011;35021;49.214;12.270;2023-02-13T14:05:24;4.72;;;3.45;;
49183;SDS011;35021;49.214;12.270;2023-02-13T14:20:49;3.40;;;2.67;;
49183;SDS011;35021;49.214;12.270;2023-02-13T14:23:34;3.05;;;2.70;;
49183;SDS011;35021;49.214;12.270;2023-02-13T14:36:43;3.13;;;2.80;;
49183;SDS011;35021;49.214;12.270;2023-02-13T14:39:32;3.42;;;3.08;;
49183;SDS011;35021;49.214;12.270;2023-02-13T14:42:19;3.00;;;2.70;;
49183;SDS011;35021;49.214;12.270;2023-02-13T14:44:55;3.70;;;2.75;;
49183;SDS011;35021;49.214;12.270;2023-02-13T14:47:36;3.30;;;2.75;;
49183;SDS011;35021;49.214;12.270;2023-02-13T14:50:14;2.97;;;2.47;;
49183;SDS011;35021;49.214;12.270;2023-02-13T14:52:45;3.53;;;2.47;;
49183;SDS011;35021;49.214;12.270;2023-02-13T14:55:15;3.10;;;2.72;;
49183;SDS011;35021;49.214;12.270;2023-02-13T14:57:59;3.05;;;2.75;;
49183;SDS011;35021;49.214;12.270;2023-02-13T15:00:42;3.67;;;3.22;;
49183;SDS011;35021;49.214;12.270;2023-02-13T15:03:27;3.35;;;2.78;;
49183;SDS011;35021;49.214;12.270;2023-02-13T15:06:20;3.70;;;2.85;;
49183;SDS011;35021;49.214;12.270;2023-02-13T15:08:53;3.75;;;3.30;;
49183;SDS011;35021;49.214;12.270;2023-02-13T15:11:37;3.95;;;3.08;;
49183;SDS011;35021;49.214;12.270;2023-02-13T15:16:52;3.72;;;3.20;;
49183;SDS011;35021;49.214;12.270;2023-02-13T15:19:23;4.15;;;3.13;;
49183;SDS011;35021;49.214;12.270;2023-02-13T15:21:52;3.15;;;2.85;;
49183;SDS011;35021;49.214;12.270;2023-02-13T15:24:24;5.15;;;3.35;;
49183;SDS011;35021;49.214;12.270;2023-02-13T15:26:54;6.53;;;3.10;;
49183;SDS011;35021;49.214;12.270;2023-02-13T15:29:27;3.28;;;2.60;;
49183;SDS011;35021;49.214;12.270;2023-02-13T15:32:17;3.20;;;2.90;;
49183;SDS011;35021;49.214;12.270;2023-02-13T15:34:46;3.60;;;2.72;;
49183;SDS011;35021;49.214;12.270;2023-02-13T15:37:23;3.50;;;3.10;;
49183;SDS011;35021;49.214;12.270;2023-02-13T15:39:53;4.47;;;3.20;;
49183;SDS011;35021;49.214;12.270;2023-02-13T15:42:20;4.03;;;2.90;;
49183;SDS011;35021;49.214;12.270;2023-02-13T15:44:48;4.13;;;2.83;;
49183;SDS011;35021;49.214;12.270;2023-02-13T15:49:51;2.85;;;2.58;;
49183;SDS011;35021;49.214;12.270;2023-02-13T15:52:20;2.97;;;2.67;;
49183;SDS011;35021;49.214;12.270;2023-02-13T15:54:56;3.63;;;2.90;;
49183;SDS011;35021;49.214;12.270;2023-02-13T15:57:24;3.70;;;3.38;;
49183;SDS011;35021;49.214;12.270;2023-02-13T15:59:53;3.33;;;3.00;;
49183;SDS011;35021;49.214;12.270;2023-02-13T16:02:23;3.70;;;3.30;;
49183;SDS011;35021;49.214;12.270;2023-02-13T16:05:05;3.47;;;3.17;;
49183;SDS011;35021;49.214;12.270;2023-02-13T16:07:53;3.55;;;3.25;;
49183;SDS011;35021;49.214;12.270;2023-02-13T16:10:29;3.45;;;3.15;;
49183;SDS011;35021;49.214;12.270;2023-02-13T16:12:57;4.50;;;3.50;;
49183;SDS011;35021;49.214;12.270;2023-02-13T16:15:27;4.20;;;3.28;;
49183;SDS011;35021;49.214;12.270;2023-02-13T16:17:56;3.67;;;3.20;;
49183;SDS011;35021;49.214;12.270;2023-02-13T16:20:27;3.55;;;3.25;;
49183;SDS011;35021;49.214;12.270;2023-02-13T16:22:58;4.13;;;3.35;;
49183;SDS011;35021;49.214;12.270;2023-02-13T16:25:29;3.55;;;3.20;;
49183;SDS011;35021;49.214;12.270;2023-02-13T16:28:03;3.45;;;3.15;;
49183;SDS011;35021;49.214;12.270;2023-02-13T16:30:44;4.03;;;3.05;;
49183;SDS011;35021;49.214;12.270;2023-02-13T16:33:19;3.35;;;3.00;;
49183;SDS011;35021;49.214;12.270;2023-02-13T16:53:55;8.13;;;5.78;;
49183;SDS011;35021;49.214;12.270;2023-02-13T16:56:23;6.85;;;6.15;;
49183;SDS011;35021;49.214;12.270;2023-02-13T16:59:01;7.47;;;5.63;;
49183;SDS011;35021;49.214;12.270;2023-02-13T17:01:45;7.55;;;5.63;;
49183;SDS011;35021;49.214;12.270;2023-02-13T17:04:20;6.75;;;5.45;;
49183;SDS011;35021;49.214;12.270;2023-02-13T17:06:55;6.13;;;4.78;;
49183;SDS011;35021;49.214;12.270;2023-02-13T17:09:22;5.85;;;4.75;;
49183;SDS011;35021;49.214;12.270;2023-02-13T17:11:49;5.65;;;4.53;;
49183;SDS011;35021;49.214;12.270;2023-02-13T17:14:18;7.93;;;4.57;;
49183;SDS011;35021;49.214;12.270;2023-02-13T17:16:46;5.15;;;4.18;;
49183;SDS011;35021;49.214;12.270;2023-02-13T17:19:14;4.68;;;3.95;;
49183;SDS011;35021;49.214;12.270;2023-02-13T17:21:40;5.38;;;4.03;;
49183;SDS011;35021;49.214;12.270;2023-02-13T17:24:08;5.05;;;4.18;;
49183;SDS011;35021;49.214;12.270;2023-02-13T17:26:42;5.90;;;4.30;;
49183;SDS011;35021;49.214;12.270;2023-02-13T17:29:09;3.92;;;3.28;;
49183;SDS011;35021;49.214;12.270;2023-02-13T17:31:35;4.40;;;3.53;;
49183;SDS011;35021;49.214;12.270;2023-02-13T17:34:03;6.15;;;4.00;;
49183;SDS011;35021;49.214;12.270;2023-02-13T17:36:30;6.82;;;4.20;;
49183;SDS011;35021;49.214;12.270;2023-02-13T17:38:57;3.97;;;3.58;;
49183;SDS011;35021;49.214;12.270;2023-02-13T17:41:24;5.75;;;4.88;;
49183;SDS011;35021;49.214;12.270;2023-02-13T17:43:50;8.65;;;6.03;;
49183;SDS011;35021;49.214;12.270;2023-02-13T17:46:17;9.00;;;6.50;;
49183;SDS011;35021;49.214;12.270;2023-02-13T17:48:44;8.70;;;6.35;;
49183;SDS011;35021;49.214;12.270;2023-02-13T17:51:12;7.50;;;6.10;;
49183;SDS011;35021;49.214;12.270;2023-02-13T17:53:39;8.80;;;6.50;;
49183;SDS011;35021;49.214;12.270;2023-02-13T17:56:06;10.82;;;6.65;;
49183;SDS011;35021;49.214;12.270;2023-02-13T17:58:33;9.27;;;6.32;;
49183;SDS011;35021;49.214;12.270;2023-02-13T18:01:00;6.63;;;5.10;;
49183;SDS011;35021;49.214;12.270;2023-02-13T18:03:27;5.95;;;4.70;;
49183;SDS011;35021;49.214;12.270;2023-02-13T18:05:54;5.40;;;4.72;;
49183;SDS011;35021;49.214;12.270;2023-02-13T18:08:21;4.55;;;4.15;;
49183;SDS011;35021;49.214;12.270;2023-02-13T18:10:48;5.43;;;4.55;;